Virginia Dale, Colorado
Current Conditions -  °F | °C
As of 4:56 PM on Wednesday 22 Oct 2014 (Local Time) from KFEW Reporting Station
Few Clouds Few Clouds  
Wind Chill: 61°   Ceiling: Unl
Heat Index: 61°   Visibility: 10mi
Dew Point: 28°   Wind: 14mph
Humidity: 28%   Direction: 290°WNW
Pressure: 30.06"   Gusts: 20mph
Location:  40.8645°N, 105.398°W
Report Text: KFEW 222256Z 29012G17KT 10SM FEW090 16/M02 A3006 RMK AO2A SLP131 T01621025 $
Loading
Personal Weather Stations






























Interactive Weather Map
Tropical Storm Tracking
New forecast layout! Learn more

10-Day Weather Forecast

Advertisements
Track Severe Weather on mobile